sensor_id;sensor_type;location;lat;lon;timestamp;P1;durP1;ratioP1;P2;durP2;ratioP2
35993;SDS011;22066;54.274;18.578;2023-05-19T00:01:08;5.27;;;2.27;;
35993;SDS011;22066;54.274;18.578;2023-05-19T00:03:34;8.63;;;2.03;;
35993;SDS011;22066;54.274;18.578;2023-05-19T00:06:05;5.90;;;2.00;;
35993;SDS011;22066;54.274;18.578;2023-05-19T00:08:32;8.52;;;2.20;;
35993;SDS011;22066;54.274;18.578;2023-05-19T00:10:59;6.43;;;2.40;;
35993;SDS011;22066;54.274;18.578;2023-05-19T00:13:26;8.07;;;2.90;;
35993;SDS011;22066;54.274;18.578;2023-05-19T00:15:52;6.87;;;2.30;;
35993;SDS011;22066;54.274;18.578;2023-05-19T00:18:18;5.27;;;2.27;;
35993;SDS011;22066;54.274;18.578;2023-05-19T00:20:45;6.00;;;2.17;;
35993;SDS011;22066;54.274;18.578;2023-05-19T00:23:11;4.47;;;2.20;;
35993;SDS011;22066;54.274;18.578;2023-05-19T00:25:37;5.60;;;2.30;;
35993;SDS011;22066;54.274;18.578;2023-05-19T00:28:03;4.77;;;2.30;;
35993;SDS011;22066;54.274;18.578;2023-05-19T00:30:29;8.23;;;2.30;;
35993;SDS011;22066;54.274;18.578;2023-05-19T00:32:55;7.60;;;2.33;;
35993;SDS011;22066;54.274;18.578;2023-05-19T00:35:24;4.63;;;2.47;;
35993;SDS011;22066;54.274;18.578;2023-05-19T00:37:50;5.20;;;2.10;;
35993;SDS011;22066;54.274;18.578;2023-05-19T00:40:16;7.50;;;2.07;;
35993;SDS011;22066;54.274;18.578;2023-05-19T00:42:42;4.97;;;1.90;;
35993;SDS011;22066;54.274;18.578;2023-05-19T00:45:08;8.93;;;2.37;;
35993;SDS011;22066;54.274;18.578;2023-05-19T00:47:34;7.00;;;1.93;;
35993;SDS011;22066;54.274;18.578;2023-05-19T00:50:00;7.23;;;1.93;;
35993;SDS011;22066;54.274;18.578;2023-05-19T00:52:26;4.00;;;1.80;;
35993;SDS011;22066;54.274;18.578;2023-05-19T00:54:52;5.23;;;2.20;;
35993;SDS011;22066;54.274;18.578;2023-05-19T00:57:20;5.73;;;2.33;;
35993;SDS011;22066;54.274;18.578;2023-05-19T00:59:47;6.73;;;2.13;;
35993;SDS011;22066;54.274;18.578;2023-05-19T01:02:13;5.17;;;1.83;;
35993;SDS011;22066;54.274;18.578;2023-05-19T01:04:39;7.53;;;2.20;;
35993;SDS011;22066;54.274;18.578;2023-05-19T01:07:07;4.68;;;1.73;;
35993;SDS011;22066;54.274;18.578;2023-05-19T01:09:34;7.80;;;2.07;;
35993;SDS011;22066;54.274;18.578;2023-05-19T01:12:01;6.17;;;2.10;;
35993;SDS011;22066;54.274;18.578;2023-05-19T01:14:27;6.27;;;1.70;;
35993;SDS011;22066;54.274;18.578;2023-05-19T01:26:57;3.63;;;1.37;;
35993;SDS011;22066;54.274;18.578;2023-05-19T01:29:28;3.83;;;1.63;;
35993;SDS011;22066;54.274;18.578;2023-05-19T01:32:01;8.53;;;1.87;;
35993;SDS011;22066;54.274;18.578;2023-05-19T01:34:28;5.30;;;1.70;;
35993;SDS011;22066;54.274;18.578;2023-05-19T01:36:55;3.13;;;1.50;;
35993;SDS011;22066;54.274;18.578;2023-05-19T01:39:23;7.00;;;1.83;;
35993;SDS011;22066;54.274;18.578;2023-05-19T01:41:49;6.30;;;2.27;;
35993;SDS011;22066;54.274;18.578;2023-05-19T01:44:17;6.60;;;2.27;;
35993;SDS011;22066;54.274;18.578;2023-05-19T01:46:43;5.30;;;1.97;;
35993;SDS011;22066;54.274;18.578;2023-05-19T01:49:09;4.40;;;2.03;;
35993;SDS011;22066;54.274;18.578;2023-05-19T01:51:36;4.93;;;1.60;;
35993;SDS011;22066;54.274;18.578;2023-05-19T01:54:02;5.47;;;1.70;;
35993;SDS011;22066;54.274;18.578;2023-05-19T01:56:31;10.13;;;2.60;;
35993;SDS011;22066;54.274;18.578;2023-05-19T01:59:02;4.70;;;1.90;;
35993;SDS011;22066;54.274;18.578;2023-05-19T02:01:36;6.13;;;1.97;;
35993;SDS011;22066;54.274;18.578;2023-05-19T02:06:54;6.37;;;1.97;;
35993;SDS011;22066;54.274;18.578;2023-05-19T02:11:53;5.80;;;1.80;;
35993;SDS011;22066;54.274;18.578;2023-05-19T02:14:24;5.13;;;1.83;;
35993;SDS011;22066;54.274;18.578;2023-05-19T02:16:50;6.47;;;2.20;;
35993;SDS011;22066;54.274;18.578;2023-05-19T02:19:23;5.13;;;2.27;;
35993;SDS011;22066;54.274;18.578;2023-05-19T02:21:49;7.10;;;2.13;;
35993;SDS011;22066;54.274;18.578;2023-05-19T02:24:16;6.23;;;2.00;;
35993;SDS011;22066;54.274;18.578;2023-05-19T02:26:42;5.50;;;2.00;;
35993;SDS011;22066;54.274;18.578;2023-05-19T02:29:08;7.57;;;2.53;;
35993;SDS011;22066;54.274;18.578;2023-05-19T02:31:34;6.53;;;1.93;;
35993;SDS011;22066;54.274;18.578;2023-05-19T02:34:00;8.60;;;2.30;;
35993;SDS011;22066;54.274;18.578;2023-05-19T02:36:26;4.30;;;1.90;;
35993;SDS011;22066;54.274;18.578;2023-05-19T02:38:52;7.17;;;1.90;;
35993;SDS011;22066;54.274;18.578;2023-05-19T02:41:18;8.00;;;2.17;;
35993;SDS011;22066;54.274;18.578;2023-05-19T02:43:45;6.73;;;2.40;;
35993;SDS011;22066;54.274;18.578;2023-05-19T02:46:11;6.60;;;2.30;;
35993;SDS011;22066;54.274;18.578;2023-05-19T02:48:38;5.30;;;1.80;;
35993;SDS011;22066;54.274;18.578;2023-05-19T02:51:04;6.73;;;2.30;;
35993;SDS011;22066;54.274;18.578;2023-05-19T02:53:30;4.40;;;1.50;;
35993;SDS011;22066;54.274;18.578;2023-05-19T02:55:56;6.37;;;2.57;;
35993;SDS011;22066;54.274;18.578;2023-05-19T02:58:22;4.83;;;2.17;;
35993;SDS011;22066;54.274;18.578;2023-05-19T03:00:48;6.23;;;2.43;;
35993;SDS011;22066;54.274;18.578;2023-05-19T03:03:15;6.13;;;2.80;;
35993;SDS011;22066;54.274;18.578;2023-05-19T03:05:42;5.30;;;2.33;;
35993;SDS011;22066;54.274;18.578;2023-05-19T03:08:08;8.53;;;2.33;;
35993;SDS011;22066;54.274;18.578;2023-05-19T03:10:34;6.13;;;2.23;;
35993;SDS011;22066;54.274;18.578;2023-05-19T03:13:00;7.30;;;2.60;;
35993;SDS011;22066;54.274;18.578;2023-05-19T03:15:26;6.33;;;2.23;;
35993;SDS011;22066;54.274;18.578;2023-05-19T03:17:53;6.40;;;2.30;;
35993;SDS011;22066;54.274;18.578;2023-05-19T03:20:19;7.80;;;2.93;;
35993;SDS011;22066;54.274;18.578;2023-05-19T03:22:45;6.00;;;2.70;;
35993;SDS011;22066;54.274;18.578;2023-05-19T03:25:11;8.27;;;2.63;;
35993;SDS011;22066;54.274;18.578;2023-05-19T03:27:37;6.87;;;2.37;;
35993;SDS011;22066;54.274;18.578;2023-05-19T03:30:03;7.37;;;2.57;;
35993;SDS011;22066;54.274;18.578;2023-05-19T03:32:30;5.73;;;2.13;;
35993;SDS011;22066;54.274;18.578;2023-05-19T03:35:01;7.20;;;2.97;;
35993;SDS011;22066;54.274;18.578;2023-05-19T03:37:27;6.93;;;2.30;;
35993;SDS011;22066;54.274;18.578;2023-05-19T03:39:54;6.10;;;2.27;;
35993;SDS011;22066;54.274;18.578;2023-05-19T03:42:20;6.50;;;2.40;;
35993;SDS011;22066;54.274;18.578;2023-05-19T03:44:46;6.20;;;2.53;;
35993;SDS011;22066;54.274;18.578;2023-05-19T03:47:12;7.37;;;2.87;;
35993;SDS011;22066;54.274;18.578;2023-05-19T03:49:38;8.40;;;2.70;;
35993;SDS011;22066;54.274;18.578;2023-05-19T03:52:04;7.17;;;2.63;;
35993;SDS011;22066;54.274;18.578;2023-05-19T03:54:30;8.10;;;3.27;;
35993;SDS011;22066;54.274;18.578;2023-05-19T03:56:56;6.83;;;3.00;;
35993;SDS011;22066;54.274;18.578;2023-05-19T03:59:22;6.63;;;2.30;;
35993;SDS011;22066;54.274;18.578;2023-05-19T04:01:49;5.93;;;2.40;;
35993;SDS011;22066;54.274;18.578;2023-05-19T04:04:15;7.23;;;3.03;;
35993;SDS011;22066;54.274;18.578;2023-05-19T04:06:41;9.73;;;2.57;;
35993;SDS011;22066;54.274;18.578;2023-05-19T04:09:11;7.23;;;2.60;;
35993;SDS011;22066;54.274;18.578;2023-05-19T04:11:38;6.63;;;2.47;;
35993;SDS011;22066;54.274;18.578;2023-05-19T04:14:04;9.27;;;2.43;;
35993;SDS011;22066;54.274;18.578;2023-05-19T04:16:30;7.43;;;3.10;;
35993;SDS011;22066;54.274;18.578;2023-05-19T04:18:57;5.97;;;2.50;;
35993;SDS011;22066;54.274;18.578;2023-05-19T04:21:23;7.83;;;2.47;;
35993;SDS011;22066;54.274;18.578;2023-05-19T04:23:49;6.00;;;2.60;;
35993;SDS011;22066;54.274;18.578;2023-05-19T04:26:15;7.97;;;2.63;;
35993;SDS011;22066;54.274;18.578;2023-05-19T04:28:42;6.23;;;2.27;;
35993;SDS011;22066;54.274;18.578;2023-05-19T04:31:11;9.50;;;2.93;;
35993;SDS011;22066;54.274;18.578;2023-05-19T04:33:38;4.20;;;2.00;;
35993;SDS011;22066;54.274;18.578;2023-05-19T04:36:07;7.70;;;2.30;;
35993;SDS011;22066;54.274;18.578;2023-05-19T04:38:37;6.67;;;2.37;;
35993;SDS011;22066;54.274;18.578;2023-05-19T04:41:04;6.83;;;2.20;;
35993;SDS011;22066;54.274;18.578;2023-05-19T04:43:34;5.97;;;2.50;;
35993;SDS011;22066;54.274;18.578;2023-05-19T04:46:00;10.70;;;2.30;;
35993;SDS011;22066;54.274;18.578;2023-05-19T04:48:29;5.30;;;2.97;;
35993;SDS011;22066;54.274;18.578;2023-05-19T04:50:56;8.57;;;2.43;;
35993;SDS011;22066;54.274;18.578;2023-05-19T04:53:22;5.83;;;2.60;;
35993;SDS011;22066;54.274;18.578;2023-05-19T04:55:49;5.73;;;2.40;;
35993;SDS011;22066;54.274;18.578;2023-05-19T04:58:15;5.07;;;2.40;;
35993;SDS011;22066;54.274;18.578;2023-05-19T05:00:42;5.63;;;2.27;;
35993;SDS011;22066;54.274;18.578;2023-05-19T05:03:08;10.02;;;2.50;;
35993;SDS011;22066;54.274;18.578;2023-05-19T05:05:34;9.27;;;2.10;;
35993;SDS011;22066;54.274;18.578;2023-05-19T05:08:00;5.68;;;2.30;;
35993;SDS011;22066;54.274;18.578;2023-05-19T05:10:27;9.70;;;4.05;;
35993;SDS011;22066;54.274;18.578;2023-05-19T05:12:53;11.20;;;6.60;;
35993;SDS011;22066;54.274;18.578;2023-05-19T05:15:19;12.32;;;7.35;;
35993;SDS011;22066;54.274;18.578;2023-05-19T05:17:46;14.00;;;7.32;;
35993;SDS011;22066;54.274;18.578;2023-05-19T05:20:12;11.88;;;7.05;;
35993;SDS011;22066;54.274;18.578;2023-05-19T05:22:38;9.25;;;3.30;;
35993;SDS011;22066;54.274;18.578;2023-05-19T05:25:05;8.05;;;2.10;;
35993;SDS011;22066;54.274;18.578;2023-05-19T05:27:31;5.40;;;1.50;;
35993;SDS011;22066;54.274;18.578;2023-05-19T05:29:57;4.80;;;1.75;;
35993;SDS011;22066;54.274;18.578;2023-05-19T05:32:23;4.82;;;1.58;;
35993;SDS011;22066;54.274;18.578;2023-05-19T05:34:49;6.82;;;1.20;;
35993;SDS011;22066;54.274;18.578;2023-05-19T05:37:15;9.80;;;2.20;;
35993;SDS011;22066;54.274;18.578;2023-05-19T05:39:41;4.65;;;1.60;;
35993;SDS011;22066;54.274;18.578;2023-05-19T05:42:07;4.38;;;1.38;;
35993;SDS011;22066;54.274;18.578;2023-05-19T05:44:34;3.45;;;1.30;;
35993;SDS011;22066;54.274;18.578;2023-05-19T05:47:00;3.20;;;1.08;;
35993;SDS011;22066;54.274;18.578;2023-05-19T05:49:26;10.30;;;1.40;;
35993;SDS011;22066;54.274;18.578;2023-05-19T05:51:52;4.82;;;1.80;;
35993;SDS011;22066;54.274;18.578;2023-05-19T05:54:20;6.75;;;1.60;;
35993;SDS011;22066;54.274;18.578;2023-05-19T05:56:47;4.60;;;1.20;;
35993;SDS011;22066;54.274;18.578;2023-05-19T05:59:13;3.00;;;1.08;;
35993;SDS011;22066;54.274;18.578;2023-05-19T06:01:39;2.72;;;1.10;;
35993;SDS011;22066;54.274;18.578;2023-05-19T06:04:07;2.70;;;1.23;;
35993;SDS011;22066;54.274;18.578;2023-05-19T06:06:34;5.68;;;1.23;;
35993;SDS011;22066;54.274;18.578;2023-05-19T06:09:01;3.92;;;1.20;;
35993;SDS011;22066;54.274;18.578;2023-05-19T06:11:28;3.33;;;1.08;;
35993;SDS011;22066;54.274;18.578;2023-05-19T06:13:54;6.65;;;1.27;;
35993;SDS011;22066;54.274;18.578;2023-05-19T06:16:20;2.38;;;1.10;;
35993;SDS011;22066;54.274;18.578;2023-05-19T06:18:46;6.68;;;1.73;;
35993;SDS011;22066;54.274;18.578;2023-05-19T06:21:12;6.70;;;2.05;;
35993;SDS011;22066;54.274;18.578;2023-05-19T06:23:38;5.20;;;1.33;;
35993;SDS011;22066;54.274;18.578;2023-05-19T06:26:04;6.25;;;1.65;;
35993;SDS011;22066;54.274;18.578;2023-05-19T06:28:31;6.28;;;1.30;;
35993;SDS011;22066;54.274;18.578;2023-05-19T06:30:57;5.00;;;1.90;;
35993;SDS011;22066;54.274;18.578;2023-05-19T06:33:24;3.38;;;1.33;;
35993;SDS011;22066;54.274;18.578;2023-05-19T06:35:50;8.57;;;2.17;;
35993;SDS011;22066;54.274;18.578;2023-05-19T06:38:16;8.57;;;1.50;;
35993;SDS011;22066;54.274;18.578;2023-05-19T06:40:42;5.15;;;2.38;;
35993;SDS011;22066;54.274;18.578;2023-05-19T06:43:08;8.68;;;1.80;;
35993;SDS011;22066;54.274;18.578;2023-05-19T06:45:34;4.22;;;1.45;;
35993;SDS011;22066;54.274;18.578;2023-05-19T06:48:00;5.30;;;1.55;;
35993;SDS011;22066;54.274;18.578;2023-05-19T06:50:26;2.40;;;1.10;;
35993;SDS011;22066;54.274;18.578;2023-05-19T06:52:52;3.92;;;1.58;;
35993;SDS011;22066;54.274;18.578;2023-05-19T06:55:19;5.20;;;1.50;;
35993;SDS011;22066;54.274;18.578;2023-05-19T06:57:45;5.65;;;1.48;;
35993;SDS011;22066;54.274;18.578;2023-05-19T07:00:11;7.18;;;1.50;;
35993;SDS011;22066;54.274;18.578;2023-05-19T07:02:37;3.47;;;1.35;;
35993;SDS011;22066;54.274;18.578;2023-05-19T07:05:04;4.32;;;1.75;;
35993;SDS011;22066;54.274;18.578;2023-05-19T07:07:30;7.85;;;1.77;;
35993;SDS011;22066;54.274;18.578;2023-05-19T07:09:56;6.15;;;1.50;;
35993;SDS011;22066;54.274;18.578;2023-05-19T07:12:22;5.32;;;1.75;;
35993;SDS011;22066;54.274;18.578;2023-05-19T07:17:16;6.70;;;1.42;;
35993;SDS011;22066;54.274;18.578;2023-05-19T07:19:42;6.68;;;2.63;;
35993;SDS011;22066;54.274;18.578;2023-05-19T07:22:08;6.20;;;1.30;;
35993;SDS011;22066;54.274;18.578;2023-05-19T07:24:34;9.60;;;1.48;;
35993;SDS011;22066;54.274;18.578;2023-05-19T07:27:00;5.97;;;1.63;;
35993;SDS011;22066;54.274;18.578;2023-05-19T07:29:26;4.10;;;2.65;;
35993;SDS011;22066;54.274;18.578;2023-05-19T07:31:52;6.68;;;1.30;;
35993;SDS011;22066;54.274;18.578;2023-05-19T07:34:22;6.65;;;1.95;;
35993;SDS011;22066;54.274;18.578;2023-05-19T07:36:48;7.40;;;1.73;;
35993;SDS011;22066;54.274;18.578;2023-05-19T07:39:14;7.07;;;1.35;;
35993;SDS011;22066;54.274;18.578;2023-05-19T07:41:40;10.00;;;1.63;;
35993;SDS011;22066;54.274;18.578;2023-05-19T07:44:06;7.55;;;1.65;;
35993;SDS011;22066;54.274;18.578;2023-05-19T07:46:32;6.20;;;1.52;;
35993;SDS011;22066;54.274;18.578;2023-05-19T07:48:58;6.00;;;1.83;;
35993;SDS011;22066;54.274;18.578;2023-05-19T07:51:24;11.18;;;2.08;;
35993;SDS011;22066;54.274;18.578;2023-05-19T07:53:50;8.60;;;1.67;;
35993;SDS011;22066;54.274;18.578;2023-05-19T07:56:17;5.53;;;1.48;;
35993;SDS011;22066;54.274;18.578;2023-05-19T07:58:43;8.95;;;2.30;;
35993;SDS011;22066;54.274;18.578;2023-05-19T08:01:09;5.70;;;1.75;;
35993;SDS011;22066;54.274;18.578;2023-05-19T08:03:35;4.55;;;1.60;;
35993;SDS011;22066;54.274;18.578;2023-05-19T08:06:01;8.80;;;1.52;;
35993;SDS011;22066;54.274;18.578;2023-05-19T08:08:27;4.70;;;1.50;;
35993;SDS011;22066;54.274;18.578;2023-05-19T08:10:53;4.82;;;1.38;;
35993;SDS011;22066;54.274;18.578;2023-05-19T08:13:19;5.65;;;1.60;;
35993;SDS011;22066;54.274;18.578;2023-05-19T08:15:45;5.70;;;1.40;;
35993;SDS011;22066;54.274;18.578;2023-05-19T08:18:12;9.73;;;2.03;;
35993;SDS011;22066;54.274;18.578;2023-05-19T08:20:38;5.35;;;2.05;;
35993;SDS011;22066;54.274;18.578;2023-05-19T08:23:04;3.03;;;1.30;;
35993;SDS011;22066;54.274;18.578;2023-05-19T08:25:30;4.40;;;1.75;;
35993;SDS011;22066;54.274;18.578;2023-05-19T08:27:56;6.50;;;1.73;;
35993;SDS011;22066;54.274;18.578;2023-05-19T08:30:22;3.42;;;1.23;;
35993;SDS011;22066;54.274;18.578;2023-05-19T08:32:48;2.55;;;0.88;;
35993;SDS011;22066;54.274;18.578;2023-05-19T08:35:14;5.18;;;1.17;;
35993;SDS011;22066;54.274;18.578;2023-05-19T08:37:40;4.00;;;1.75;;
35993;SDS011;22066;54.274;18.578;2023-05-19T08:40:06;7.22;;;1.20;;
35993;SDS011;22066;54.274;18.578;2023-05-19T08:42:35;7.28;;;1.60;;
35993;SDS011;22066;54.274;18.578;2023-05-19T08:45:02;6.65;;;1.15;;
35993;SDS011;22066;54.274;18.578;2023-05-19T08:47:28;9.73;;;1.30;;
35993;SDS011;22066;54.274;18.578;2023-05-19T08:49:56;7.03;;;1.20;;
35993;SDS011;22066;54.274;18.578;2023-05-19T08:52:30;6.78;;;1.35;;
35993;SDS011;22066;54.274;18.578;2023-05-19T08:54:59;6.70;;;1.33;;
35993;SDS011;22066;54.274;18.578;2023-05-19T08:57:27;3.22;;;1.45;;
35993;SDS011;22066;54.274;18.578;2023-05-19T08:59:53;7.38;;;1.27;;
35993;SDS011;22066;54.274;18.578;2023-05-19T09:02:19;4.32;;;1.80;;
35993;SDS011;22066;54.274;18.578;2023-05-19T09:04:46;3.20;;;1.17;;
35993;SDS011;22066;54.274;18.578;2023-05-19T09:07:13;5.53;;;1.58;;
35993;SDS011;22066;54.274;18.578;2023-05-19T09:09:40;9.13;;;2.17;;
35993;SDS011;22066;54.274;18.578;2023-05-19T09:12:10;7.35;;;1.90;;
35993;SDS011;22066;54.274;18.578;2023-05-19T09:14:37;4.78;;;1.50;;
35993;SDS011;22066;54.274;18.578;2023-05-19T09:17:04;8.80;;;1.40;;
35993;SDS011;22066;54.274;18.578;2023-05-19T09:19:30;5.30;;;1.50;;
35993;SDS011;22066;54.274;18.578;2023-05-19T09:21:57;6.47;;;1.30;;
35993;SDS011;22066;54.274;18.578;2023-05-19T09:26:50;5.47;;;1.70;;
35993;SDS011;22066;54.274;18.578;2023-05-19T09:29:19;5.97;;;1.92;;
35993;SDS011;22066;54.274;18.578;2023-05-19T09:34:14;6.72;;;1.52;;
35993;SDS011;22066;54.274;18.578;2023-05-19T09:36:40;6.60;;;1.50;;
35993;SDS011;22066;54.274;18.578;2023-05-19T09:39:13;7.30;;;1.52;;
35993;SDS011;22066;54.274;18.578;2023-05-19T09:41:40;3.47;;;1.20;;
35993;SDS011;22066;54.274;18.578;2023-05-19T09:44:06;5.32;;;1.42;;
35993;SDS011;22066;54.274;18.578;2023-05-19T09:46:32;6.03;;;1.63;;
35993;SDS011;22066;54.274;18.578;2023-05-19T09:49:06;3.77;;;1.07;;
35993;SDS011;22066;54.274;18.578;2023-05-19T09:51:34;4.05;;;1.38;;
35993;SDS011;22066;54.274;18.578;2023-05-19T09:56:30;8.77;;;2.10;;
35993;SDS011;22066;54.274;18.578;2023-05-19T09:58:58;2.58;;;1.20;;
35993;SDS011;22066;54.274;18.578;2023-05-19T10:01:24;3.97;;;1.33;;
35993;SDS011;22066;54.274;18.578;2023-05-19T10:03:51;11.65;;;1.88;;
35993;SDS011;22066;54.274;18.578;2023-05-19T10:06:17;7.85;;;1.23;;
35993;SDS011;22066;54.274;18.578;2023-05-19T10:08:43;4.88;;;1.27;;
35993;SDS011;22066;54.274;18.578;2023-05-19T10:11:10;7.47;;;1.98;;
35993;SDS011;22066;54.274;18.578;2023-05-19T10:13:36;4.10;;;1.13;;
35993;SDS011;22066;54.274;18.578;2023-05-19T10:16:03;2.35;;;1.33;;
35993;SDS011;22066;54.274;18.578;2023-05-19T10:18:30;11.32;;;2.30;;
35993;SDS011;22066;54.274;18.578;2023-05-19T10:20:58;3.55;;;1.40;;
35993;SDS011;22066;54.274;18.578;2023-05-19T10:23:25;8.68;;;1.98;;
35993;SDS011;22066;54.274;18.578;2023-05-19T10:25:51;4.25;;;1.60;;
35993;SDS011;22066;54.274;18.578;2023-05-19T10:28:19;4.80;;;1.45;;
35993;SDS011;22066;54.274;18.578;2023-05-19T10:30:49;11.95;;;2.42;;
35993;SDS011;22066;54.274;18.578;2023-05-19T10:33:18;6.07;;;2.08;;
35993;SDS011;22066;54.274;18.578;2023-05-19T10:46:29;5.85;;;1.95;;
35993;SDS011;22066;54.274;18.578;2023-05-19T10:48:55;5.80;;;1.92;;
35993;SDS011;22066;54.274;18.578;2023-05-19T10:51:29;7.00;;;2.30;;
35993;SDS011;22066;54.274;18.578;2023-05-19T10:53:55;9.10;;;2.17;;
35993;SDS011;22066;54.274;18.578;2023-05-19T10:56:33;5.97;;;2.25;;
35993;SDS011;22066;54.274;18.578;2023-05-19T10:59:00;4.00;;;1.73;;
35993;SDS011;22066;54.274;18.578;2023-05-19T11:01:33;3.78;;;1.65;;
35993;SDS011;22066;54.274;18.578;2023-05-19T11:04:04;7.93;;;2.20;;
35993;SDS011;22066;54.274;18.578;2023-05-19T11:06:31;7.20;;;1.73;;
35993;SDS011;22066;54.274;18.578;2023-05-19T11:08:59;5.72;;;1.73;;
35993;SDS011;22066;54.274;18.578;2023-05-19T11:11:26;6.65;;;2.15;;
35993;SDS011;22066;54.274;18.578;2023-05-19T11:13:53;7.78;;;1.98;;
35993;SDS011;22066;54.274;18.578;2023-05-19T11:16:30;6.15;;;2.00;;
35993;SDS011;22066;54.274;18.578;2023-05-19T11:18:59;11.80;;;2.07;;
35993;SDS011;22066;54.274;18.578;2023-05-19T11:21:41;7.63;;;2.30;;
35993;SDS011;22066;54.274;18.578;2023-05-19T11:24:07;5.63;;;2.08;;
35993;SDS011;22066;54.274;18.578;2023-05-19T11:26:40;10.23;;;2.05;;
35993;SDS011;22066;54.274;18.578;2023-05-19T11:29:07;5.97;;;2.33;;
35993;SDS011;22066;54.274;18.578;2023-05-19T11:31:33;8.05;;;2.25;;
35993;SDS011;22066;54.274;18.578;2023-05-19T11:34:00;5.03;;;2.20;;
35993;SDS011;22066;54.274;18.578;2023-05-19T11:36:29;10.70;;;2.53;;
35993;SDS011;22066;54.274;18.578;2023-05-19T11:38:55;4.55;;;1.90;;
35993;SDS011;22066;54.274;18.578;2023-05-19T11:43:50;4.97;;;2.00;;
35993;SDS011;22066;54.274;18.578;2023-05-19T11:46:16;7.75;;;2.22;;
35993;SDS011;22066;54.274;18.578;2023-05-19T11:48:42;10.55;;;2.65;;
35993;SDS011;22066;54.274;18.578;2023-05-19T11:51:11;9.23;;;2.42;;
35993;SDS011;22066;54.274;18.578;2023-05-19T11:53:37;8.40;;;2.13;;
35993;SDS011;22066;54.274;18.578;2023-05-19T11:56:04;7.07;;;2.30;;
35993;SDS011;22066;54.274;18.578;2023-05-19T11:58:30;14.75;;;2.92;;
35993;SDS011;22066;54.274;18.578;2023-05-19T12:00:56;13.40;;;2.28;;
35993;SDS011;22066;54.274;18.578;2023-05-19T12:03:22;5.63;;;2.55;;
35993;SDS011;22066;54.274;18.578;2023-05-19T12:05:52;7.90;;;2.40;;
35993;SDS011;22066;54.274;18.578;2023-05-19T12:08:18;7.05;;;2.17;;
35993;SDS011;22066;54.274;18.578;2023-05-19T12:10:48;10.73;;;2.22;;
35993;SDS011;22066;54.274;18.578;2023-05-19T12:13:14;7.50;;;1.80;;
35993;SDS011;22066;54.274;18.578;2023-05-19T12:15:40;4.80;;;1.60;;
35993;SDS011;22066;54.274;18.578;2023-05-19T12:18:07;7.45;;;1.90;;
35993;SDS011;22066;54.274;18.578;2023-05-19T12:20:33;4.40;;;1.88;;
35993;SDS011;22066;54.274;18.578;2023-05-19T12:22:59;5.57;;;2.22;;
35993;SDS011;22066;54.274;18.578;2023-05-19T12:25:26;7.15;;;2.20;;
35993;SDS011;22066;54.274;18.578;2023-05-19T12:27:56;4.20;;;1.45;;
35993;SDS011;22066;54.274;18.578;2023-05-19T12:30:26;9.95;;;2.50;;
35993;SDS011;22066;54.274;18.578;2023-05-19T12:32:53;4.88;;;1.70;;
35993;SDS011;22066;54.274;18.578;2023-05-19T12:35:19;3.90;;;1.58;;
35993;SDS011;22066;54.274;18.578;2023-05-19T12:37:47;4.60;;;1.48;;
35993;SDS011;22066;54.274;18.578;2023-05-19T12:40:16;3.42;;;1.33;;
35993;SDS011;22066;54.274;18.578;2023-05-19T12:42:45;5.13;;;1.85;;
35993;SDS011;22066;54.274;18.578;2023-05-19T12:45:12;8.00;;;1.73;;
35993;SDS011;22066;54.274;18.578;2023-05-19T12:47:39;4.53;;;1.80;;
35993;SDS011;22066;54.274;18.578;2023-05-19T12:50:05;5.88;;;2.40;;
35993;SDS011;22066;54.274;18.578;2023-05-19T12:52:42;5.57;;;1.95;;
35993;SDS011;22066;54.274;18.578;2023-05-19T12:55:08;6.65;;;1.88;;
35993;SDS011;22066;54.274;18.578;2023-05-19T12:57:42;7.68;;;2.17;;
35993;SDS011;22066;54.274;18.578;2023-05-19T13:00:18;6.28;;;1.60;;
35993;SDS011;22066;54.274;18.578;2023-05-19T13:05:23;3.65;;;2.10;;
35993;SDS011;22066;54.274;18.578;2023-05-19T13:07:53;3.35;;;1.50;;
35993;SDS011;22066;54.274;18.578;2023-05-19T13:10:20;3.20;;;1.23;;
35993;SDS011;22066;54.274;18.578;2023-05-19T13:12:46;4.85;;;1.95;;
35993;SDS011;22066;54.274;18.578;2023-05-19T13:15:12;5.35;;;1.75;;
35993;SDS011;22066;54.274;18.578;2023-05-19T13:17:38;4.22;;;1.80;;
35993;SDS011;22066;54.274;18.578;2023-05-19T13:20:04;5.18;;;1.95;;
35993;SDS011;22066;54.274;18.578;2023-05-19T13:22:30;4.30;;;1.63;;
35993;SDS011;22066;54.274;18.578;2023-05-19T13:24:56;5.88;;;2.45;;
35993;SDS011;22066;54.274;18.578;2023-05-19T13:27:23;4.28;;;1.60;;
35993;SDS011;22066;54.274;18.578;2023-05-19T13:29:50;4.25;;;1.83;;
35993;SDS011;22066;54.274;18.578;2023-05-19T13:32:16;4.00;;;1.80;;
35993;SDS011;22066;54.274;18.578;2023-05-19T13:34:42;7.63;;;2.08;;
35993;SDS011;22066;54.274;18.578;2023-05-19T13:37:08;5.47;;;2.20;;
35993;SDS011;22066;54.274;18.578;2023-05-19T13:39:35;6.88;;;1.75;;
35993;SDS011;22066;54.274;18.578;2023-05-19T13:42:01;7.80;;;2.08;;
35993;SDS011;22066;54.274;18.578;2023-05-19T13:44:28;5.53;;;2.05;;
35993;SDS011;22066;54.274;18.578;2023-05-19T13:46:55;4.95;;;2.03;;
35993;SDS011;22066;54.274;18.578;2023-05-19T13:49:21;7.07;;;2.38;;
35993;SDS011;22066;54.274;18.578;2023-05-19T13:51:47;5.45;;;2.35;;
35993;SDS011;22066;54.274;18.578;2023-05-19T13:54:13;5.60;;;2.10;;
35993;SDS011;22066;54.274;18.578;2023-05-19T13:56:39;5.90;;;1.70;;
35993;SDS011;22066;54.274;18.578;2023-05-19T13:59:07;3.73;;;1.77;;
35993;SDS011;22066;54.274;18.578;2023-05-19T14:01:33;4.18;;;2.00;;
35993;SDS011;22066;54.274;18.578;2023-05-19T14:03:59;7.45;;;1.90;;
35993;SDS011;22066;54.274;18.578;2023-05-19T14:06:25;7.57;;;2.60;;
35993;SDS011;22066;54.274;18.578;2023-05-19T14:08:51;8.60;;;2.33;;
35993;SDS011;22066;54.274;18.578;2023-05-19T14:11:18;9.18;;;2.60;;
35993;SDS011;22066;54.274;18.578;2023-05-19T14:13:46;6.25;;;2.22;;
35993;SDS011;22066;54.274;18.578;2023-05-19T14:16:13;4.78;;;2.15;;
35993;SDS011;22066;54.274;18.578;2023-05-19T14:18:39;6.03;;;1.98;;
35993;SDS011;22066;54.274;18.578;2023-05-19T14:21:06;6.45;;;2.45;;
35993;SDS011;22066;54.274;18.578;2023-05-19T14:23:32;8.63;;;2.80;;
35993;SDS011;22066;54.274;18.578;2023-05-19T14:25:58;6.00;;;2.25;;
35993;SDS011;22066;54.274;18.578;2023-05-19T14:28:24;5.55;;;2.00;;
35993;SDS011;22066;54.274;18.578;2023-05-19T14:30:50;11.93;;;2.50;;
35993;SDS011;22066;54.274;18.578;2023-05-19T14:33:16;11.32;;;2.75;;
35993;SDS011;22066;54.274;18.578;2023-05-19T14:35:43;7.78;;;2.83;;
35993;SDS011;22066;54.274;18.578;2023-05-19T14:38:09;7.63;;;3.28;;
35993;SDS011;22066;54.274;18.578;2023-05-19T14:40:36;7.25;;;3.00;;
35993;SDS011;22066;54.274;18.578;2023-05-19T14:43:02;7.93;;;3.20;;
35993;SDS011;22066;54.274;18.578;2023-05-19T14:45:28;7.38;;;2.90;;
35993;SDS011;22066;54.274;18.578;2023-05-19T14:47:54;10.82;;;3.22;;
35993;SDS011;22066;54.274;18.578;2023-05-19T14:50:20;6.88;;;3.28;;
35993;SDS011;22066;54.274;18.578;2023-05-19T14:52:46;6.95;;;2.78;;
35993;SDS011;22066;54.274;18.578;2023-05-19T14:55:12;4.93;;;2.70;;
35993;SDS011;22066;54.274;18.578;2023-05-19T14:57:38;6.47;;;2.58;;
35993;SDS011;22066;54.274;18.578;2023-05-19T15:00:06;7.28;;;3.10;;
35993;SDS011;22066;54.274;18.578;2023-05-19T15:02:34;9.65;;;3.55;;
35993;SDS011;22066;54.274;18.578;2023-05-19T15:05:00;8.40;;;3.10;;
35993;SDS011;22066;54.274;18.578;2023-05-19T15:07:26;8.90;;;3.20;;
35993;SDS011;22066;54.274;18.578;2023-05-19T15:09:52;7.95;;;3.42;;
35993;SDS011;22066;54.274;18.578;2023-05-19T15:12:18;5.78;;;2.80;;